Airfield :
LOGIN :

Register | Disclaimer

   EN    FR    IT 

 










Legend :    VFR   Marginal VFR   IFR   Intensive IFR   Very Intensive IFR
Visi :
Ceiling :
>= 8 km
>= 3000ft
5 to 8 km
1000 to 3000 ft
1500m to 5 km
500 to 1000 ft
800 to 1500m
200 to 500 ft
< 800m
< 200 ft
Symbols :   Thunderstorms  Fog  Heavy snow  Heavy precipitations  Wind > 20 kt
SIGMETs :     Misc.  Thunderstorms  Icing  Turbulence  Mountain Waves  Volcanic Ashes






- Airport Elevation : 12 ft
- IATA code : BCN


LEBL - Barcelone

CURRENT METAR :
  • 161100Z 10007KT 060V130 9999 FEW020 SCT035 21/15 Q1018 NOSIG

EXPIRED METARs :
  • 161030Z 10007KT 9999 FEW020 SCT033 21/14 Q1018 NOSIG
  • 161000Z 08007KT 050V110 9999 FEW020 SCT033 21/15 Q1018 NOSIG
  • 160930Z 07007KT 040V100 9999 FEW020 SCT033 21/14 Q1018 NOSIG
  • 160900Z 07007KT 9999 FEW015 SCT024 19/14 Q1018 NOSIG
  • 160830Z 34003KT 9999 FEW015 SCT020 18/14 Q1018 NOSIG

TAF AMD TAF LEBL
Valid from the 16 at 08:00 until the 17 at 06:00 UTC


160805Z 1608/1706 35007KT 9999 FEW015 TX22/1612Z TN17/1608Z
PROB40
TEMPO 1608/1615 SHRA FEW025TCU
BECMG 1608/1610 11010KT
PROB40
TEMPO 1610/1612 VRB03KT
BECMG 1618/1620 34004KT



MET'MAP, your aeronautical weather chart ! - Copyright ORBIFLY December 2007 - Disclaimer

ORBIFLY MET'MAP TEAM :

Programming & Development : Alexandra Zaïnal
Concept & original design : Baudouin d'Aumeries
Assistance for programming : Marc-Olivier Méhu
Technical & hardware support : Manuel Goepfert

Contact : metmap@orbifly.com




SOURCES & CREDITS :

   NOAA